Time;durP1;ratioP1;P1;durP2;ratioP2;P2;SDS_P1;SDS_P2;PMS_P1;PMS_P2;Temp;Humidity;BMP_temperature;BMP_pressure;BME280_temperature;BME280_humidity;BME280_pressure;Samples;Min_cycle;Max_cycle;Signal;HPM_P1;HPM_P2
2021/04/27 00:02:18;;;;;;;3.78;1.90;;;4.00;65.70;;;;;;3528919;40;20177;-62
2021/04/27 00:04:44;;;;;;;2.28;1.45;;;4.00;66.50;;;;;;3528888;40;20109;-63
2021/04/27 00:07:10;;;;;;;5.55;2.13;;;4.00;66.10;;;;;;3527903;40;20031;-63
2021/04/27 00:09:36;;;;;;;6.00;3.03;;;3.90;66.10;;;;;;3528226;40;20097;-63
2021/04/27 00:12:03;;;;;;;5.57;3.15;;;3.90;65.90;;;;;;3528079;40;20022;-63
2021/04/27 00:14:29;;;;;;;6.82;2.83;;;3.80;66.00;;;;;;3528205;40;20027;-63
2021/04/27 00:16:55;;;;;;;3.00;1.58;;;3.80;66.20;;;;;;3528218;40;20041;-63
2021/04/27 00:19:21;;;;;;;2.58;1.38;;;3.70;66.20;;;;;;3528064;40;20054;-62
2021/04/27 00:21:47;;;;;;;2.28;1.10;;;3.70;67.20;;;;;;3527395;40;20310;-63
2021/04/27 00:24:12;;;;;;;2.55;1.55;;;3.70;67.10;;;;;;3526994;40;20507;-63
2021/04/27 00:26:38;;;;;;;4.60;2.05;;;3.80;67.20;;;;;;3528393;40;20027;-63
2021/04/27 00:29:04;;;;;;;4.65;1.85;;;3.80;67.30;;;;;;3528317;40;20374;-62
2021/04/27 00:31:31;;;;;;;5.28;1.90;;;3.80;67.00;;;;;;3527567;40;20565;-63
2021/04/27 00:33:57;;;;;;;3.30;1.30;;;3.70;66.30;;;;;;3526204;40;20046;-63
2021/04/27 00:36:25;;;;;;;5.75;1.58;;;3.80;67.20;;;;;;3527004;40;20035;-64
2021/04/27 00:38:50;;;;;;;2.40;1.75;;;3.70;67.70;;;;;;3527765;40;20325;-64
2021/04/27 00:41:16;;;;;;;4.03;2.22;;;3.70;67.90;;;;;;3526874;40;20054;-64
2021/04/27 00:43:42;;;;;;;4.97;2.83;;;3.70;67.70;;;;;;3527753;40;20646;-65
2021/04/27 00:46:08;;;;;;;6.05;2.08;;;3.60;67.40;;;;;;3526409;40;20031;-62
2021/04/27 00:48:33;;;;;;;7.95;2.83;;;3.60;67.70;;;;;;3528898;40;20082;-63
2021/04/27 00:50:59;;;;;;;4.60;2.58;;;3.60;68.10;;;;;;3528389;40;20043;-63
2021/04/27 00:53:26;;;;;;;6.20;2.60;;;3.50;67.10;;;;;;3529177;40;20653;-63
2021/04/27 00:55:52;;;;;;;5.95;2.92;;;3.50;67.00;;;;;;3529303;40;20084;-62
2021/04/27 00:58:21;;;;;;;5.10;2.63;;;3.50;67.10;;;;;;3544718;40;20031;-63
2021/04/27 01:00:47;;;;;;;8.02;2.63;;;3.40;67.50;;;;;;3527490;40;20038;-63
2021/04/27 01:03:13;;;;;;;4.70;2.60;;;3.40;67.90;;;;;;3529190;40;20031;-62
2021/04/27 01:05:40;;;;;;;3.35;2.03;;;3.30;68.20;;;;;;3529423;40;20038;-62
2021/04/27 01:08:33;;;;;;;4.88;2.38;;;3.30;68.30;;;;;;3529849;40;20081;-62
2021/04/27 01:11:15;;;;;;;7.45;2.47;;;3.20;67.80;;;;;;3531318;40;20030;-62
2021/04/27 01:13:59;;;;;;;6.20;3.10;;;3.20;68.00;;;;;;3532962;40;20133;-62
2021/04/27 01:16:28;;;;;;;7.05;2.90;;;3.20;67.40;;;;;;3532491;40;20041;-62
2021/04/27 01:18:55;;;;;;;4.05;2.20;;;3.10;68.00;;;;;;3543492;40;20042;-63
2021/04/27 01:21:24;;;;;;;3.45;2.10;;;3.00;67.80;;;;;;3526186;40;20407;-62
2021/04/27 01:24:18;;;;;;;6.30;1.90;;;3.00;67.80;;;;;;3528179;40;20109;-62
2021/04/27 01:26:54;;;;;;;4.22;2.08;;;2.90;68.30;;;;;;3532645;40;20054;-62
2021/04/27 01:29:23;;;;;;;3.85;2.35;;;2.80;69.00;;;;;;3528059;40;20766;-63
2021/04/27 01:31:51;;;;;;;2.78;1.83;;;2.80;69.00;;;;;;3526357;40;20444;-62
2021/04/27 01:34:21;;;;;;;2.80;1.45;;;2.70;68.90;;;;;;3527734;40;20120;-62
2021/04/27 01:36:49;;;;;;;4.68;1.77;;;2.70;69.10;;;;;;3543657;40;20441;-65
2021/04/27 01:39:16;;;;;;;5.18;1.77;;;2.80;69.20;;;;;;3528870;40;20037;-63
2021/04/27 01:41:42;;;;;;;3.17;1.38;;;2.70;70.30;;;;;;3527616;40;20047;-63
2021/04/27 01:44:09;;;;;;;3.83;1.60;;;2.70;71.10;;;;;;3528345;40;20035;-63
2021/04/27 01:46:36;;;;;;;7.28;2.13;;;2.70;71.20;;;;;;3528464;40;20051;-62
2021/04/27 01:49:04;;;;;;;2.15;1.40;;;2.60;71.40;;;;;;3528683;40;20388;-63
2021/04/27 01:51:32;;;;;;;3.58;1.67;;;2.60;71.60;;;;;;3526926;40;20059;-63
2021/04/27 01:54:22;;;;;;;3.28;1.65;;;2.60;71.00;;;;;;3543980;40;20055;-62
2021/04/27 01:56:47;;;;;;;4.00;2.30;;;2.50;71.10;;;;;;3529145;40;20043;-62
2021/04/27 01:59:13;;;;;;;5.20;1.80;;;2.50;71.00;;;;;;3528702;40;20031;-63
2021/04/27 02:01:43;;;;;;;5.60;2.10;;;2.50;71.00;;;;;;3526911;40;20400;-63
2021/04/27 02:04:09;;;;;;;3.45;2.00;;;2.50;71.30;;;;;;3527054;40;20023;-63
2021/04/27 02:07:09;;;;;;;4.30;2.20;;;2.50;71.30;;;;;;3527013;40;20762;-63
2021/04/27 02:09:35;;;;;;;5.50;2.38;;;2.50;71.60;;;;;;3528515;40;20043;-63
2021/04/27 02:12:27;;;;;;;6.50;2.10;;;2.50;71.10;;;;;;3527215;40;20046;-63
2021/04/27 02:14:53;;;;;;;4.03;2.22;;;2.40;70.60;;;;;;3526722;40;20027;-62
2021/04/27 02:17:36;;;;;;;4.95;2.70;;;2.40;70.70;;;;;;3528434;40;20098;-63
2021/04/27 02:20:04;;;;;;;3.45;2.10;;;2.40;71.00;;;;;;3534454;40;20062;-63
2021/04/27 02:22:49;;;;;;;6.78;2.35;;;2.30;70.60;;;;;;3528394;40;20121;-63
2021/04/27 02:25:31;;;;;;;5.78;3.40;;;2.40;70.50;;;;;;3543122;40;20592;-63
2021/04/27 02:27:58;;;;;;;6.40;3.30;;;2.30;70.70;;;;;;3542580;40;20195;-63
2021/04/27 02:30:25;;;;;;;5.70;3.38;;;2.30;70.60;;;;;;3527784;40;20435;-63
2021/04/27 02:32:51;;;;;;;5.18;2.92;;;2.30;71.00;;;;;;3527675;40;20039;-63
2021/04/27 02:35:20;;;;;;;6.47;3.60;;;2.30;71.10;;;;;;3526630;40;20658;-62
2021/04/27 02:37:48;;;;;;;10.30;3.80;;;2.30;71.10;;;;;;3526658;40;20720;-63
2021/04/27 02:40:28;;;;;;;8.65;3.60;;;2.30;71.40;;;;;;3527086;40;20133;-63
2021/04/27 02:42:58;;;;;;;9.07;3.00;;;2.30;71.30;;;;;;3544428;40;20158;-64
2021/04/27 02:45:38;;;;;;;5.03;2.53;;;2.30;71.10;;;;;;3528050;40;20046;-62
2021/04/27 02:48:27;;;;;;;4.75;2.60;;;2.30;70.80;;;;;;3529360;40;20039;-63
2021/04/27 02:51:16;;;;;;;4.88;2.40;;;2.20;71.00;;;;;;3534279;40;20047;-64
2021/04/27 02:53:57;;;;;;;5.95;2.75;;;2.20;71.40;;;;;;3544296;40;20043;-63
2021/04/27 02:56:24;;;;;;;3.28;2.17;;;2.20;71.70;;;;;;3544257;40;20063;-63
2021/04/27 02:58:52;;;;;;;4.35;2.20;;;2.20;72.30;;;;;;3529284;40;20046;-63
2021/04/27 03:01:18;;;;;;;5.22;2.47;;;2.10;72.20;;;;;;3519811;40;20031;-63
2021/04/27 03:03:44;;;;;;;3.70;1.70;;;2.10;71.60;;;;;;3527829;40;20039;-62
2021/04/27 03:06:10;;;;;;;5.20;2.25;;;2.10;71.70;;;;;;3529823;40;20409;-63
2021/04/27 03:08:49;;;;;;;4.40;1.95;;;2.10;71.60;;;;;;3544325;40;20050;-63
2021/04/27 03:11:15;;;;;;;4.60;2.40;;;2.10;71.80;;;;;;3528913;40;20450;-63
2021/04/27 03:13:42;;;;;;;4.20;2.08;;;2.10;72.10;;;;;;3528297;40;20039;-63
2021/04/27 03:16:08;;;;;;;6.47;2.47;;;2.10;72.40;;;;;;3519840;40;20035;-63
2021/04/27 03:18:35;;;;;;;5.32;2.75;;;2.10;72.80;;;;;;3527997;40;20108;-61
2021/04/27 03:21:01;;;;;;;6.78;3.60;;;2.10;72.80;;;;;;3528763;40;20039;-63
2021/04/27 03:23:29;;;;;;;4.68;2.80;;;2.10;73.30;;;;;;3528335;40;20031;-62
2021/04/27 03:25:55;;;;;;;6.68;2.95;;;2.10;74.40;;;;;;3527514;40;20034;-63
2021/04/27 03:28:30;;;;;;;5.57;2.50;;;2.10;74.10;;;;;;3527566;40;20242;-63
2021/04/27 03:30:59;;;;;;;5.32;2.28;;;2.10;74.60;;;;;;3529245;40;20038;-63
2021/04/27 03:33:25;;;;;;;4.20;2.15;;;2.10;75.00;;;;;;3528284;40;20771;-62
2021/04/27 03:35:53;;;;;;;4.82;1.73;;;2.10;75.00;;;;;;3527369;40;20062;-63
2021/04/27 03:38:19;;;;;;;3.88;2.15;;;2.10;75.00;;;;;;3518812;40;20039;-63
2021/04/27 03:40:46;;;;;;;4.40;1.95;;;2.10;75.20;;;;;;3527064;40;20144;-62
2021/04/27 03:43:16;;;;;;;4.50;2.08;;;2.10;75.60;;;;;;3531422;40;20063;-63
2021/04/27 03:45:45;;;;;;;3.92;1.90;;;2.10;75.90;;;;;;3528762;40;20067;-63
2021/04/27 03:48:14;;;;;;;3.72;1.70;;;2.10;75.80;;;;;;3527533;40;20050;-62
2021/04/27 03:50:47;;;;;;;;;;;2.20;76.00;;;;;;3535868;40;20043;-63
2021/04/27 03:53:27;;;;;;;4.40;1.75;;;2.10;75.30;;;;;;3531923;40;20751;-63
2021/04/27 03:55:53;;;;;;;4.13;2.00;;;2.10;75.40;;;;;;3528502;40;20042;-63
2021/04/27 03:58:19;;;;;;;4.72;1.83;;;2.10;75.10;;;;;;3528077;40;20050;-63
2021/04/27 04:00:45;;;;;;;4.07;1.92;;;2.20;74.70;;;;;;3528237;40;20035;-63
2021/04/27 04:03:18;;;;;;;4.00;1.30;;;2.20;74.80;;;;;;3527189;40;20046;-64
2021/04/27 04:05:44;;;;;;;2.92;1.60;;;2.20;74.40;;;;;;3528841;40;20109;-61
2021/04/27 04:08:22;;;;;;;8.43;1.80;;;2.20;74.20;;;;;;3527846;40;20045;-62
2021/04/27 04:10:47;;;;;;;2.85;1.70;;;2.20;73.50;;;;;;3527642;40;20417;-65
2021/04/27 04:13:13;;;;;;;3.05;1.40;;;2.30;73.20;;;;;;3543947;40;20031;-62
2021/04/27 04:15:40;;;;;;;2.72;1.40;;;2.40;72.60;;;;;;3532830;40;20031;-63
2021/04/27 04:18:06;;;;;;;3.75;1.80;;;2.40;71.80;;;;;;3526570;40;20787;-63
2021/04/27 04:20:32;;;;;;;7.03;1.70;;;2.40;72.20;;;;;;3527406;40;20610;-63
2021/04/27 04:23:16;;;;;;;3.08;1.95;;;2.40;73.10;;;;;;3526251;40;20096;-62
2021/04/27 04:25:42;;;;;;;4.28;2.10;;;2.50;72.40;;;;;;3527252;40;20086;-63
2021/04/27 04:28:10;;;;;;;3.45;1.95;;;2.50;72.00;;;;;;3528306;40;20856;-62
2021/04/27 04:30:36;;;;;;;5.30;1.90;;;2.50;72.10;;;;;;3528140;40;20109;-60
2021/04/27 04:33:20;;;;;;;10.02;2.33;;;2.50;71.30;;;;;;3527215;40;20069;-61
2021/04/27 04:36:08;;;;;;;4.00;2.20;;;2.50;71.00;;;;;;3528522;40;20166;-61
2021/04/27 04:38:53;;;;;;;4.00;2.00;;;2.60;70.70;;;;;;3528415;40;20046;-62
2021/04/27 04:41:37;;;;;;;3.55;1.90;;;2.60;70.10;;;;;;3527431;40;20073;-62
2021/04/27 04:44:21;;;;;;;4.93;2.30;;;2.60;70.20;;;;;;3528129;40;20038;-62
2021/04/27 04:47:05;;;;;;;4.95;2.80;;;2.60;70.50;;;;;;3527717;40;20053;-62
2021/04/27 04:49:34;;;;;;;5.03;2.92;;;2.60;71.20;;;;;;3528278;40;20043;-62
2021/04/27 04:52:29;;;;;;;7.30;2.92;;;2.60;71.70;;;;;;3537089;40;20056;-62
2021/04/27 04:55:17;;;;;;;4.65;2.35;;;2.70;72.20;;;;;;3527878;40;20058;-62
2021/04/27 04:58:10;;;;;;;5.78;3.10;;;2.70;71.40;;;;;;3528160;40;20030;-62
2021/04/27 05:00:51;;;;;;;6.25;2.30;;;2.70;71.40;;;;;;3524787;40;20049;-62
2021/04/27 05:03:45;;;;;;;4.63;2.20;;;2.80;70.40;;;;;;3524189;40;20066;-62
2021/04/27 05:06:20;;;;;;;4.50;2.22;;;3.00;69.90;;;;;;3528563;40;20046;-63
2021/04/27 05:09:07;;;;;;;6.20;2.50;;;3.10;69.30;;;;;;3527029;40;20045;-62
2021/04/27 05:11:51;;;;;;;3.87;2.10;;;3.20;69.10;;;;;;3528794;40;20670;-61
2021/04/27 05:14:33;;;;;;;5.05;2.20;;;3.50;68.10;;;;;;3527897;40;20325;-61
2021/04/27 05:17:01;;;;;;;6.10;2.17;;;3.70;66.70;;;;;;3529119;40;20054;-63
2021/04/27 05:19:27;;;;;;;6.43;2.75;;;4.00;65.80;;;;;;3529353;40;20015;-62
2021/04/27 05:21:53;;;;;;;6.75;2.30;;;4.40;65.60;;;;;;3527830;40;20733;-62
2021/04/27 05:24:21;;;;;;;6.25;2.60;;;4.90;60.90;;;;;;3531544;40;20039;-63
2021/04/27 05:26:47;;;;;;;6.47;2.42;;;5.40;59.50;;;;;;3528780;40;20029;-62
2021/04/27 05:29:14;;;;;;;7.65;2.42;;;5.70;55.70;;;;;;3530487;40;20031;-64
2021/04/27 05:31:40;;;;;;;6.32;2.28;;;6.20;55.30;;;;;;3530702;40;20015;-63
2021/04/27 05:34:06;;;;;;;5.60;2.80;;;6.80;53.70;;;;;;3533025;40;20039;-60
2021/04/27 05:36:32;;;;;;;5.80;2.20;;;7.40;50.70;;;;;;3532139;40;20147;-61
2021/04/27 05:38:58;;;;;;;4.65;2.22;;;7.90;49.10;;;;;;3529971;40;20305;-60
2021/04/27 05:41:24;;;;;;;3.72;2.15;;;8.30;48.00;;;;;;3528707;40;20039;-62
2021/04/27 05:43:50;;;;;;;6.03;2.40;;;8.70;46.90;;;;;;3528345;40;20031;-62
2021/04/27 05:46:16;;;;;;;5.70;2.15;;;8.90;45.80;;;;;;3528788;40;20045;-63
2021/04/27 05:48:42;;;;;;;7.50;2.55;;;9.10;44.40;;;;;;3527296;40;20031;-63
2021/04/27 05:51:07;;;;;;;7.57;2.40;;;9.70;44.00;;;;;;3528595;40;20071;-67
2021/04/27 05:53:33;;;;;;;3.83;2.33;;;9.70;42.70;;;;;;3528751;40;20054;-67
2021/04/27 05:55:59;;;;;;;4.07;2.05;;;9.60;43.00;;;;;;3528202;40;20629;-67
2021/04/27 05:58:25;;;;;;;7.20;2.42;;;9.90;43.40;;;;;;3529350;40;20428;-69
2021/04/27 06:00:50;;;;;;;3.67;1.73;;;10.10;42.10;;;;;;3527496;40;20034;-66
2021/04/27 06:03:16;;;;;;;3.75;2.10;;;10.50;41.50;;;;;;3528972;40;20075;-68
2021/04/27 06:05:42;;;;;;;4.10;2.13;;;10.70;40.70;;;;;;3529192;40;20027;-67
2021/04/27 06:08:07;;;;;;;3.55;1.75;;;11.00;40.00;;;;;;3529218;40;20047;-67
2021/04/27 06:10:33;;;;;;;3.25;1.83;;;10.80;39.80;;;;;;3527757;40;20019;-68
2021/04/27 06:12:59;;;;;;;3.90;1.90;;;11.00;39.80;;;;;;3528945;40;20746;-66
2021/04/27 06:15:25;;;;;;;5.28;1.90;;;10.90;39.50;;;;;;3530146;40;20066;-68
2021/04/27 06:17:50;;;;;;;2.97;1.77;;;11.30;40.30;;;;;;3529507;40;20125;-68
2021/04/27 06:20:16;;;;;;;3.35;1.40;;;12.00;39.80;;;;;;3529659;40;20038;-67
2021/04/27 06:22:42;;;;;;;5.70;1.77;;;12.70;37.40;;;;;;3530410;40;20405;-67
2021/04/27 06:25:09;;;;;;;4.47;1.65;;;13.10;35.60;;;;;;3529875;40;20043;-67
2021/04/27 06:27:35;;;;;;;3.28;1.85;;;13.10;35.30;;;;;;3530301;40;20038;-68
2021/04/27 06:30:03;;;;;;;2.80;1.50;;;13.20;35.40;;;;;;3530192;40;20329;-68
2021/04/27 06:32:28;;;;;;;3.17;1.50;;;13.00;35.30;;;;;;3528512;40;20173;-68
2021/04/27 06:34:55;;;;;;;4.50;1.67;;;13.00;35.60;;;;;;3529966;40;20603;-69
2021/04/27 06:37:22;;;;;;;6.60;1.60;;;12.90;35.10;;;;;;3529499;40;20034;-68
2021/04/27 06:39:47;;;;;;;2.78;1.38;;;12.90;34.80;;;;;;3529781;40;20034;-73
2021/04/27 06:42:13;;;;;;;3.88;1.75;;;13.00;34.90;;;;;;3530073;40;20054;-72
2021/04/27 06:44:39;;;;;;;3.85;1.50;;;13.40;35.60;;;;;;3529989;40;20042;-70
2021/04/27 06:47:06;;;;;;;2.28;1.48;;;13.50;33.70;;;;;;3529397;40;20039;-71
2021/04/27 06:49:33;;;;;;;2.55;1.60;;;13.20;33.90;;;;;;3527566;40;20070;-74
2021/04/27 06:51:59;;;;;;;2.38;1.48;;;13.20;34.40;;;;;;3528729;40;20034;-70
2021/04/27 06:54:25;;;;;;;3.25;1.50;;;13.20;34.60;;;;;;3529716;40;20540;-67
2021/04/27 06:56:50;;;;;;;3.95;1.65;;;13.30;34.50;;;;;;3528902;40;20654;-68
2021/04/27 06:59:19;;;;;;;2.55;1.38;;;13.50;34.50;;;;;;3529698;40;20050;-68
2021/04/27 07:01:46;;;;;;;2.97;1.45;;;13.40;34.40;;;;;;3528045;40;20030;-68
2021/04/27 07:04:11;;;;;;;2.80;1.40;;;13.80;35.50;;;;;;3529797;40;20037;-67
2021/04/27 07:06:37;;;;;;;6.68;1.83;;;14.10;34.30;;;;;;3529842;40;20098;-68
2021/04/27 07:09:03;;;;;;;2.20;1.30;;;14.40;34.90;;;;;;3529544;40;20046;-69
2021/04/27 07:11:31;;;;;;;1.77;1.30;;;14.80;34.30;;;;;;3530410;40;20078;-67
2021/04/27 07:13:57;;;;;;;4.07;1.20;;;15.00;32.80;;;;;;3528526;40;20046;-68
2021/04/27 07:16:22;;;;;;;2.97;1.50;;;15.10;32.80;;;;;;3529622;40;20031;-69
2021/04/27 07:18:48;;;;;;;1.98;1.50;;;15.10;32.00;;;;;;3529480;40;20038;-69
2021/04/27 07:21:16;;;;;;;2.03;1.40;;;14.70;31.60;;;;;;3529274;40;20492;-67
2021/04/27 07:23:41;;;;;;;2.88;1.50;;;14.60;33.60;;;;;;3529129;40;20642;-68
2021/04/27 07:26:08;;;;;;;4.30;1.60;;;14.90;32.80;;;;;;3528623;40;20038;-68
2021/04/27 07:28:34;;;;;;;2.42;1.60;;;15.30;32.20;;;;;;3529755;40;20046;-66
2021/04/27 07:31:00;;;;;;;2.95;1.50;;;15.40;30.90;;;;;;3529138;40;20117;-67
2021/04/27 07:33:25;;;;;;;3.90;1.88;;;15.00;31.30;;;;;;3529512;40;20113;-67
2021/04/27 07:35:51;;;;;;;3.67;1.70;;;15.10;31.80;;;;;;3536455;40;20049;-67
2021/04/27 07:38:17;;;;;;;1.70;1.15;;;15.80;31.10;;;;;;3528332;40;20762;-68
2021/04/27 07:40:43;;;;;;;2.85;1.27;;;16.50;29.50;;;;;;3528934;40;20039;-70
2021/04/27 07:43:09;;;;;;;3.05;1.52;;;16.70;29.10;;;;;;3528537;40;20519;-69
2021/04/27 07:45:35;;;;;;;2.92;1.55;;;15.90;28.60;;;;;;3528299;40;20043;-68
2021/04/27 07:48:04;;;;;;;2.65;1.42;;;15.30;29.60;;;;;;3535566;40;20046;-69
2021/04/27 07:50:31;;;;;;;3.90;1.30;;;15.20;30.20;;;;;;3528208;40;20039;-69
2021/04/27 07:52:57;;;;;;;2.67;1.25;;;15.10;30.80;;;;;;3528824;40;20046;-68
2021/04/27 07:55:23;;;;;;;2.83;1.55;;;15.10;31.30;;;;;;3527775;40;20621;-69
2021/04/27 07:57:50;;;;;;;3.50;1.30;;;14.90;30.30;;;;;;3529212;40;20039;-69
2021/04/27 08:00:16;;;;;;;4.38;1.50;;;15.00;30.60;;;;;;3528207;40;20066;-65
2021/04/27 08:02:42;;;;;;;2.35;1.30;;;14.90;30.60;;;;;;3529154;40;20137;-67
2021/04/27 08:05:09;;;;;;;3.88;1.40;;;14.60;30.60;;;;;;3525353;40;20114;-66
2021/04/27 08:07:36;;;;;;;1.50;1.00;;;14.30;30.60;;;;;;3528688;40;20120;-65
2021/04/27 08:10:04;;;;;;;1.90;1.10;;;14.40;31.60;;;;;;3528852;40;20095;-65
2021/04/27 08:12:29;;;;;;;3.20;1.20;;;14.10;31.30;;;;;;3527964;40;20086;-66
2021/04/27 08:14:55;;;;;;;3.22;1.45;;;13.50;31.40;;;;;;3528218;40;20039;-65
2021/04/27 08:17:22;;;;;;;4.05;1.27;;;13.60;33.40;;;;;;3528691;40;20034;-65
2021/04/27 08:19:48;;;;;;;1.95;1.27;;;13.90;31.80;;;;;;3528289;40;20824;-66
2021/04/27 08:22:14;;;;;;;2.38;1.30;;;14.40;32.40;;;;;;3543298;40;20682;-66
2021/04/27 08:24:44;;;;;;;2.50;1.30;;;14.70;31.20;;;;;;3528175;40;20030;-66
2021/04/27 08:27:14;;;;;;;4.97;1.60;;;14.80;30.70;;;;;;3528371;40;20085;-66
2021/04/27 08:29:40;;;;;;;2.97;1.40;;;14.80;30.10;;;;;;3527714;40;20030;-68
2021/04/27 08:32:06;;;;;;;3.83;1.30;;;14.20;30.70;;;;;;3527686;40;20050;-68
2021/04/27 08:34:32;;;;;;;2.03;1.13;;;14.00;31.10;;;;;;3528067;40;20749;-68
2021/04/27 08:36:58;;;;;;;1.85;1.00;;;13.90;31.00;;;;;;3527322;40;20090;-67
2021/04/27 08:39:24;;;;;;;1.95;0.95;;;14.00;30.90;;;;;;3527796;40;20320;-67
2021/04/27 08:41:51;;;;;;;1.85;1.00;;;14.20;31.30;;;;;;3527854;40;20030;-68
2021/04/27 08:44:17;;;;;;;4.70;1.10;;;14.50;30.60;;;;;;3526896;40;20038;-68
2021/04/27 08:46:43;;;;;;;2.35;1.40;;;15.00;30.20;;;;;;3528062;40;20026;-67
2021/04/27 08:49:09;;;;;;;3.85;1.45;;;15.30;29.70;;;;;;3528416;40;20489;-68
2021/04/27 08:51:35;;;;;;;2.97;1.55;;;16.00;30.20;;;;;;3527579;40;20046;-67
2021/04/27 08:54:04;;;;;;;2.28;1.40;;;16.50;28.80;;;;;;3528033;40;20054;-68
2021/04/27 08:56:29;;;;;;;1.75;1.00;;;16.60;27.70;;;;;;3528371;40;20027;-67
2021/04/27 08:58:55;;;;;;;3.42;0.98;;;16.40;27.50;;;;;;3527587;40;20038;-67
2021/04/27 09:01:21;;;;;;;3.75;1.23;;;16.20;28.10;;;;;;3528170;40;20066;-67
2021/04/27 09:03:51;;;;;;;1.90;1.05;;;15.90;27.90;;;;;;3528439;40;20019;-68
2021/04/27 09:06:19;;;;;;;1.60;1.10;;;15.80;28.30;;;;;;3527159;40;20109;-67
2021/04/27 09:08:47;;;;;;;3.60;1.10;;;15.60;28.40;;;;;;3524828;40;20046;-67
2021/04/27 09:11:29;;;;;;;1.48;0.90;;;15.40;28.40;;;;;;3525804;40;20034;-67
2021/04/27 09:14:14;;;;;;;0.82;0.70;;;15.90;29.10;;;;;;3526605;40;20757;-67
2021/04/27 09:16:52;;;;;;;1.30;0.90;;;15.70;28.20;;;;;;3526433;40;20185;-66
2021/04/27 09:19:36;;;;;;;1.70;0.85;;;15.90;29.20;;;;;;3527363;40;20316;-68
2021/04/27 09:22:30;;;;;;;4.82;1.20;;;16.30;29.10;;;;;;3527055;40;20027;-66
2021/04/27 09:25:01;;;;;;;2.70;1.35;;;16.50;28.10;;;;;;3527010;40;20417;-67
2021/04/27 09:27:37;;;;;;;2.22;1.13;;;16.70;28.60;;;;;;3527552;40;20054;-68
2021/04/27 09:30:18;;;;;;;;;;;16.90;28.40;;;;;;3526589;40;20035;-68
2021/04/27 09:32:58;;;;;;;2.67;0.73;;;17.00;28.20;;;;;;3526010;40;19953;-68
2021/04/27 09:35:38;;;;;;;1.00;0.80;;;16.70;27.70;;;;;;3526887;40;20031;-66
2021/04/27 09:38:15;;;;;;;1.95;1.20;;;15.90;27.00;;;;;;3526247;40;20116;-68
2021/04/27 09:40:52;;;;;;;1.17;0.88;;;15.30;27.70;;;;;;3527345;40;20047;-66
2021/04/27 09:43:18;;;;;;;0.95;0.88;;;15.30;28.20;;;;;;3528424;40;20094;-67
2021/04/27 09:45:47;;;;;;;1.00;0.88;;;15.40;28.60;;;;;;3526599;40;20037;-68
2021/04/27 09:48:14;;;;;;;1.25;0.88;;;15.20;27.30;;;;;;3527338;40;20031;-66
2021/04/27 09:50:41;;;;;;;3.63;0.98;;;14.70;28.40;;;;;;3528293;40;20041;-66
2021/04/27 09:53:07;;;;;;;1.05;0.88;;;14.20;28.60;;;;;;3529056;40;20047;-66
2021/04/27 09:55:36;;;;;;;2.95;0.85;;;14.50;29.00;;;;;;3528638;40;20085;-68
2021/04/27 09:58:03;;;;;;;2.50;1.17;;;15.40;28.50;;;;;;3526715;40;20034;-68
2021/04/27 10:00:36;;;;;;;2.95;0.85;;;15.90;28.20;;;;;;3528029;40;20098;-66
2021/04/27 10:03:12;;;;;;;0.82;0.80;;;16.30;27.30;;;;;;3527341;40;20038;-66
2021/04/27 10:05:42;;;;;;;2.67;0.98;;;16.40;27.10;;;;;;3528215;40;20047;-67
2021/04/27 10:08:10;;;;;;;1.02;0.82;;;16.50;27.20;;;;;;3528589;40;20042;-67
2021/04/27 10:10:36;;;;;;;1.55;1.00;;;16.30;26.20;;;;;;3528695;40;20065;-67
2021/04/27 10:13:05;;;;;;;2.22;0.90;;;16.40;27.60;;;;;;3528457;40;20096;-66
2021/04/27 10:15:31;;;;;;;2.30;1.02;;;16.70;26.60;;;;;;3530011;40;20035;-67
2021/04/27 10:18:00;;;;;;;1.25;0.95;;;16.80;26.10;;;;;;3529657;40;20058;-68
2021/04/27 10:20:26;;;;;;;1.10;1.00;;;16.70;26.10;;;;;;3529613;40;20035;-65
2021/04/27 10:22:53;;;;;;;2.05;0.88;;;16.50;26.80;;;;;;3530443;40;20424;-68
2021/04/27 10:25:23;;;;;;;2.97;1.02;;;16.30;27.40;;;;;;3530309;40;20042;-68
2021/04/27 10:28:05;;;;;;;2.58;1.10;;;16.40;27.60;;;;;;3529805;40;20049;-68
2021/04/27 10:30:32;;;;;;;2.47;0.93;;;16.20;26.40;;;;;;3528551;40;20035;-68
2021/04/27 10:33:00;;;;;;;2.13;1.10;;;15.70;26.90;;;;;;3545037;40;20026;-67
2021/04/27 10:35:27;;;;;;;2.10;1.20;;;15.70;28.00;;;;;;3529591;40;20027;-67
2021/04/27 10:38:06;;;;;;;2.20;1.25;;;15.50;27.60;;;;;;3529658;40;20019;-69
2021/04/27 10:40:40;;;;;;;1.63;1.17;;;15.10;28.20;;;;;;3529691;40;20082;-66
2021/04/27 10:43:25;;;;;;;1.17;0.90;;;14.60;28.50;;;;;;3532261;40;20519;-68
2021/04/27 10:45:59;;;;;;;2.80;1.05;;;14.10;28.10;;;;;;3528950;40;20102;-68
2021/04/27 10:48:38;;;;;;;2.40;1.08;;;14.00;29.40;;;;;;3529690;40;20540;-69
2021/04/27 10:51:23;;;;;;;2.45;1.15;;;13.90;29.50;;;;;;3527613;40;20714;-70
2021/04/27 10:54:15;;;;;;;2.25;1.00;;;14.10;30.20;;;;;;3529075;40;20050;-70
2021/04/27 10:56:47;;;;;;;2.38;1.13;;;14.60;29.60;;;;;;3524187;40;20043;-69
2021/04/27 10:59:21;;;;;;;2.00;1.00;;;14.60;28.70;;;;;;3527265;40;20826;-70
2021/04/27 11:01:48;;;;;;;1.50;1.08;;;14.40;28.50;;;;;;3528258;40;20034;-70
2021/04/27 11:04:31;;;;;;;3.72;0.88;;;14.50;29.30;;;;;;3529517;40;20628;-70
2021/04/27 11:07:15;;;;;;;1.35;1.20;;;14.80;30.00;;;;;;3529178;40;20051;-64
2021/04/27 11:10:02;;;;;;;4.68;1.33;;;14.60;29.30;;;;;;3531910;40;20035;-65
2021/04/27 11:12:44;;;;;;;1.33;0.95;;;14.00;29.90;;;;;;3528413;40;20030;-66
2021/04/27 11:15:25;;;;;;;1.55;1.17;;;14.00;29.50;;;;;;3543823;40;20047;-66
2021/04/27 11:18:10;;;;;;;1.83;1.20;;;14.10;29.50;;;;;;3528369;40;20409;-66
2021/04/27 11:21:06;;;;;;;8.38;1.27;;;14.40;30.60;;;;;;3527826;40;20816;-66
2021/04/27 11:23:37;;;;;;;3.45;1.10;;;14.50;29.00;;;;;;3529464;40;20101;-67
2021/04/27 11:26:23;;;;;;;2.10;1.00;;;13.70;28.60;;;;;;3529061;40;20506;-65
2021/04/27 11:28:57;;;;;;;1.02;0.88;;;13.40;29.80;;;;;;3528382;40;20051;-65
2021/04/27 11:31:23;;;;;;;2.30;0.90;;;13.00;29.70;;;;;;3527752;40;20412;-65
2021/04/27 11:34:03;;;;;;;1.38;1.00;;;13.10;30.00;;;;;;3528036;40;20035;-68
2021/04/27 11:36:36;;;;;;;1.40;0.95;;;13.30;31.10;;;;;;3528645;40;20030;-66
2021/04/27 11:39:19;;;;;;;3.53;1.00;;;13.40;29.10;;;;;;3529079;40;20141;-65
2021/04/27 11:41:59;;;;;;;2.08;0.88;;;13.20;29.20;;;;;;3530312;40;20042;-66
2021/04/27 11:44:34;;;;;;;2.15;0.98;;;13.10;29.00;;;;;;3529585;40;20101;-65
2021/04/27 11:47:05;;;;;;;1.80;0.70;;;13.10;30.20;;;;;;3529102;40;20731;-68
2021/04/27 11:49:57;;;;;;;1.77;0.98;;;13.00;29.90;;;;;;3528994;40;20027;-66
2021/04/27 11:52:37;;;;;;;3.00;1.40;;;13.00;31.20;;;;;;3524058;40;20035;-64
2021/04/27 11:55:09;;;;;;;1.27;1.10;;;13.50;31.70;;;;;;3528569;40;20047;-60
2021/04/27 11:57:35;;;;;;;1.73;0.93;;;13.50;29.50;;;;;;3528742;40;20425;-67
2021/04/27 12:00:01;;;;;;;1.55;0.80;;;13.60;29.70;;;;;;3527942;40;20035;-66
2021/04/27 12:02:31;;;;;;;3.00;1.00;;;13.30;30.00;;;;;;3529019;40;20039;-66
2021/04/27 12:04:58;;;;;;;2.15;0.85;;;13.60;29.40;;;;;;3528293;40;20039;-65
2021/04/27 12:07:28;;;;;;;1.10;0.70;;;13.60;28.80;;;;;;3527127;40;20041;-66
2021/04/27 12:09:56;;;;;;;2.00;0.95;;;13.70;29.80;;;;;;3527765;40;20349;-66
2021/04/27 12:12:23;;;;;;;2.13;1.20;;;13.90;28.90;;;;;;3528254;40;20039;-65
2021/04/27 12:14:53;;;;;;;2.28;1.13;;;13.90;28.70;;;;;;3528938;40;20410;-66
2021/04/27 12:17:32;;;;;;;4.50;1.02;;;13.90;27.60;;;;;;3527098;40;20041;-67
2021/04/27 12:20:11;;;;;;;3.65;1.30;;;13.80;28.80;;;;;;3528845;40;20031;-65
2021/04/27 12:22:55;;;;;;;1.30;0.90;;;13.60;28.00;;;;;;3528728;40;20043;-66
2021/04/27 12:25:25;;;;;;;1.33;0.70;;;13.40;28.30;;;;;;3528264;40;20043;-66
2021/04/27 12:28:04;;;;;;;3.15;0.88;;;13.40;27.60;;;;;;3528359;40;20847;-66
2021/04/27 12:30:31;;;;;;;2.28;1.10;;;13.50;29.10;;;;;;3528066;40;20137;-66
2021/04/27 12:33:06;;;;;;;4.90;0.98;;;13.40;28.00;;;;;;3528005;40;20109;-66
2021/04/27 12:35:34;;;;;;;3.63;0.85;;;13.10;28.70;;;;;;3527289;40;20082;-66
2021/04/27 12:38:09;;;;;;;3.03;0.82;;;12.90;28.90;;;;;;3528453;40;20043;-66
2021/04/27 12:40:40;;;;;;;3.78;1.08;;;12.80;28.90;;;;;;3527054;40;20444;-65
2021/04/27 12:43:08;;;;;;;1.13;0.82;;;13.10;29.80;;;;;;3527960;40;20046;-66
2021/04/27 12:45:42;;;;;;;1.00;0.90;;;13.30;30.90;;;;;;3526970;40;20737;-65
2021/04/27 12:48:09;;;;;;;1.75;1.00;;;13.60;30.10;;;;;;3527480;40;20430;-66
2021/04/27 12:50:51;;;;;;;1.67;0.88;;;13.60;29.70;;;;;;3527987;40;20349;-66
2021/04/27 12:53:19;;;;;;;1.67;0.98;;;13.80;30.60;;;;;;3527933;40;20059;-66
2021/04/27 12:55:54;;;;;;;4.72;1.20;;;13.80;29.30;;;;;;3528640;40;20042;-66
2021/04/27 12:58:27;;;;;;;4.18;1.05;;;13.80;28.00;;;;;;3527630;40;20038;-66
2021/04/27 13:01:02;;;;;;;1.60;1.20;;;13.70;27.90;;;;;;3528245;40;20109;-66
2021/04/27 13:03:33;;;;;;;3.38;1.10;;;13.70;28.80;;;;;;3527897;40;20835;-66
2021/04/27 13:06:25;;;;;;;1.77;0.85;;;13.70;29.50;;;;;;3528407;40;20045;-66
2021/04/27 13:09:08;;;;;;;1.08;0.77;;;13.50;29.50;;;;;;3528119;40;20038;-66
2021/04/27 13:11:35;;;;;;;1.80;1.10;;;13.40;28.80;;;;;;3527931;40;20835;-66
2021/04/27 13:14:20;;;;;;;1.70;0.80;;;13.50;29.90;;;;;;3528016;40;20873;-65